Flight Track Log - Related Links

Times and Time Zones

All times are in EDT time to prevent confusion due to time zone crossing. See the TRS587 flight status page for this flight to view local times or setup timezone preferences in your user account.

Time Position Orientation Groundspeed Altitude Reporting Facility
EDT Latitude Longitude Course Direction KTS MPH feet Rate Location/Type
Sat 01:50:44 PM 42.9333 -87.8333 114° Southeast 183 211 4,000  Level KMKE
Sat 01:51:44 PM 42.8667 -87.8000 160° South 292 336 4,100 53 Climbing KMKE
Sat 01:52:38 PM 42.8000 -87.7500 151° Southeast 280 322 4,100  Level KMKE
Sat 01:53:14 PM 42.7567 -87.7344 165° South 277 319 4,100  Level Chicago Center
Sat 01:54:16 PM 42.6856 -87.6931 157° South 277 319 4,100 -49 Level Chicago Center
Sat 01:55:00 PM 42.4064 -87.8290 175° South  Level Estimated
Sat 01:55:17 PM 42.6153 -87.6536 158° South 274 315 4,000  Level Chicago Center
Sat 01:56:19 PM 42.5383 -87.6461 176° South 275 316 4,000  Level Chicago Center
Sat 01:57:21 PM 42.4617 -87.6303 171° South 279 321 4,000 -49 Level Chicago Center
Sat 01:58:22 PM 42.3783 -87.5853 158° South 276 318 3,900  Descending Chicago Center
Sat 01:59:24 PM 42.3186 -87.5511 157° South 273 314 4,000 48 Climbing Chicago Center
Sat 02:00:26 PM 42.2350 -87.5019 156° South 273 314 4,000  Level Chicago Center
Sat 02:01:27 PM 42.1661 -87.4628 157° South 271 312 4,000 -49 Level Chicago Center
Sat 02:02:29 PM 42.0956 -87.4197 156° South 275 316 3,900  Descending Chicago Center
Sat 02:03:31 PM 42.0211 -87.4139 177° South 275 316 4,000 49 Climbing Chicago Center
Sat 02:04:32 PM 41.9483 -87.4161 181° South 268 308 4,000  Level Chicago Center
Sat 02:05:34 PM 41.8908 -87.4747 217° Southwest 257 296 4,000  Level Chicago Center
Sat 02:06:36 PM 41.8361 -87.5364 220° Southwest 256 295 4,000  Level Chicago Center
Sat 02:07:37 PM 41.7758 -87.6181 225° Southwest 257 296 4,000 -49 Level Chicago Center
Sat 02:08:39 PM 41.7242 -87.6869 225° Southwest 260 299 3,900 -683 Descending Chicago Center
Sat 02:09:40 PM 41.6733 -87.7572 226° Southwest 262 302 2,600 -683 Descending Chicago Center
Sat 02:10:42 PM 41.6439 -87.8317 242° Southwest 247 284 2,500 -144 Descending Chicago Center
Sat 02:12:27 PM 41.7167 -87.8333 359° North 189 217 2,200 -400 Descending Chicago TRACON
Sat 02:13:27 PM 41.7500 -87.8000 37° Northeast 131 151 1,400 -596 Descending Chicago TRACON
Sat 02:14:48 PM 41.7867 -87.7508 45° Northeast 147 169 800 -444 Descending Chicago Center

Login

Don't have an account? Register now (free) for customized features, flight alerts, and more!